createdAt,value
2019-04-30T00:03:50.476Z,99.90
2019-04-30T00:13:58.873Z,99.90
2019-04-30T00:24:08.656Z,99.90
2019-04-30T00:34:10.054Z,99.90
2019-04-30T00:44:15.405Z,99.90
2019-04-30T00:54:22.525Z,99.90
2019-04-30T01:04:32.684Z,99.90
2019-04-30T01:14:38.635Z,99.90
2019-04-30T01:24:44.330Z,99.90
2019-04-30T01:34:53.872Z,99.90
2019-04-30T01:44:56.683Z,99.90
2019-04-30T01:55:01.961Z,99.90
2019-04-30T02:05:08.938Z,99.90
2019-04-30T02:15:14.255Z,99.90
2019-04-30T02:25:19.655Z,99.90
2019-04-30T02:35:47.112Z,99.90
2019-04-30T02:45:55.817Z,99.90
2019-04-30T02:56:02.639Z,99.90
2019-04-30T03:06:07.936Z,99.90
2019-04-30T03:16:14.862Z,99.90
2019-04-30T03:26:20.218Z,99.90
2019-04-30T03:36:26.734Z,99.90
2019-04-30T03:46:32.037Z,99.90
2019-04-30T03:56:39.673Z,99.90
2019-04-30T04:06:49.249Z,99.90
2019-04-30T04:16:54.299Z,99.90
2019-04-30T04:26:59.811Z,99.90
2019-04-30T04:37:05.958Z,99.90
2019-04-30T04:47:12.040Z,99.90
2019-04-30T04:57:19.244Z,99.90
2019-04-30T05:07:24.331Z,98.40
2019-04-30T05:17:32.103Z,94.80
2019-04-30T05:27:36.907Z,88.60
2019-04-30T05:37:42.279Z,77.70
2019-04-30T05:47:50.176Z,74.50
2019-04-30T05:57:56.537Z,72.80
2019-04-30T06:08:01.782Z,68.90
2019-04-30T06:18:13.499Z,64.50
2019-04-30T06:28:14.337Z,66.00
2019-04-30T06:38:19.614Z,63.30
2019-04-30T06:48:26.102Z,68.20
2019-04-30T06:58:31.490Z,68.80
2019-04-30T07:08:55.839Z,71.50
2019-04-30T07:19:01.534Z,72.80
2019-04-30T07:29:06.984Z,74.90
2019-04-30T07:39:12.388Z,75.40
2019-04-30T07:49:20.427Z,73.20
2019-04-30T07:59:24.873Z,73.20
2019-04-30T08:09:39.166Z,75.50
2019-04-30T08:19:38.797Z,76.50
2019-04-30T08:29:44.798Z,76.90
2019-04-30T08:39:50.312Z,79.40
2019-04-30T08:49:55.844Z,79.60
2019-04-30T09:00:01.533Z,81.70
2019-04-30T09:10:09.606Z,82.40
2019-04-30T09:20:15.043Z,80.50
2019-04-30T09:30:20.389Z,79.90
2019-04-30T09:40:25.983Z,82.80
2019-04-30T09:50:31.900Z,82.60
2019-04-30T10:00:39.303Z,81.00
2019-04-30T10:10:58.781Z,78.90
2019-04-30T10:21:04.237Z,79.40
2019-04-30T10:31:09.777Z,77.80
2019-04-30T10:41:16.058Z,77.10
2019-04-30T10:51:21.382Z,75.70
2019-04-30T11:01:29.063Z,77.90
2019-04-30T11:11:34.291Z,77.50
2019-04-30T11:21:39.601Z,74.10
2019-04-30T11:31:54.286Z,72.90
2019-04-30T11:42:00.838Z,69.80
2019-04-30T11:52:06.721Z,73.40
2019-04-30T12:02:39.310Z,71.40
2019-04-30T12:12:44.733Z,68.40
2019-04-30T12:22:50.124Z,70.30
2019-04-30T12:32:56.854Z,69.30
2019-04-30T12:43:02.179Z,68.70
2019-04-30T12:53:11.078Z,70.00
2019-04-30T13:03:16.575Z,69.80
2019-04-30T13:13:22.221Z,66.90
2019-04-30T13:23:29.657Z,68.90
2019-04-30T13:33:43.167Z,69.30
2019-04-30T13:44:10.538Z,68.60
2019-04-30T13:54:16.823Z,69.80
2019-04-30T14:04:39.776Z,72.00
2019-04-30T14:14:45.071Z,69.30
2019-04-30T14:24:50.447Z,68.40
2019-04-30T14:34:58.817Z,70.30
2019-04-30T14:45:17.507Z,66.40
2019-04-30T14:55:42.106Z,65.90
2019-04-30T15:05:51.350Z,68.60
2019-04-30T15:15:54.646Z,71.10
2019-04-30T15:26:00.309Z,70.70
2019-04-30T15:36:06.422Z,68.40
2019-04-30T15:46:11.814Z,67.40
2019-04-30T15:56:19.173Z,68.30
2019-04-30T16:06:24.286Z,68.80
2019-04-30T16:16:33.688Z,67.40
2019-04-30T16:26:49.323Z,67.70
2019-04-30T16:36:46.608Z,66.60
2019-04-30T16:46:52.066Z,66.10
2019-04-30T16:57:05.954Z,66.00
2019-04-30T17:07:18.651Z,66.70
2019-04-30T17:17:23.630Z,68.20
2019-04-30T17:27:29.417Z,69.40
2019-04-30T17:37:34.830Z,73.90
2019-04-30T17:47:40.279Z,76.70
2019-04-30T17:57:45.831Z,78.80
2019-04-30T18:07:51.275Z,79.70
2019-04-30T18:18:08.549Z,75.30
2019-04-30T18:28:14.513Z,75.50
2019-04-30T18:38:20.005Z,76.50
2019-04-30T18:48:25.350Z,77.20
2019-04-30T18:58:39.217Z,77.50
2019-04-30T19:08:51.267Z,78.80
2019-04-30T19:19:06.321Z,79.40
2019-04-30T19:29:11.709Z,80.80
2019-04-30T19:39:19.958Z,81.80
2019-04-30T19:49:25.592Z,82.50
2019-04-30T19:59:31.122Z,84.00
2019-04-30T20:09:36.511Z,85.30
2019-04-30T20:19:41.945Z,85.90
2019-04-30T20:29:51.524Z,86.70
2019-04-30T20:40:11.029Z,88.30
2019-04-30T20:50:16.636Z,89.70
2019-04-30T21:00:22.088Z,90.20
2019-04-30T21:10:29.249Z,90.40
2019-04-30T21:20:34.442Z,90.60
2019-04-30T21:30:40.077Z,91.20
2019-04-30T21:40:45.590Z,90.80
2019-04-30T21:50:50.904Z,90.90
2019-04-30T22:01:23.859Z,90.90
2019-04-30T22:11:30.270Z,91.20
2019-04-30T22:21:35.631Z,91.50
2019-04-30T22:31:40.969Z,91.60
2019-04-30T22:41:46.727Z,90.80
2019-04-30T22:51:53.053Z,93.80
2019-04-30T23:02:08.382Z,95.70
2019-04-30T23:12:13.776Z,97.30
2019-04-30T23:22:19.146Z,98.60
2019-04-30T23:32:24.330Z,99.70
2019-04-30T23:42:29.605Z,99.90
2019-04-30T23:52:34.847Z,99.90
